Tallaght, Ireland
Current Conditions -  °F | °C
As of 5:00 PM on Saturday 22 Nov 2014 (Local Time) from EIME Reporting Station
Broken Clouds Broken Clouds  
Wind Chill: 37°   Ceiling: 25000
Heat Index: 43°   Visibility: 6mi
Dew Point: 41°   Wind: 10mph
Humidity: 93%   Direction: 220°SW
Pressure: 29.91"   Gusts: NA
Location:  53.29°N, 6.37°W
Report Text: EIME 221700Z 22009KT 9999 FEW020 BKN250 06/05 Q1013
Loading
Personal Weather Stations






























Interactive Weather Map New forecast layout! Learn more

10-Day Weather Forecast

Advertisements
Track Severe Weather on mobile